x

Buoy F01 - West Penobscot Bay (44033) Wave Buoy

8:04 - Sat 29th Apr 2017 All times are EDT. -4 hours from GMT.

  • Sig Wave height 2.0ft
  • Peak Period 8s
  • Wind
    7mph, 9mph gusts
  • Sea Temp 44°f
  • Luft Temp 46°f
  • Sea Pressure 1013mb
  • Buoy F01 - West Penobscot Bay
  • Buoy F01 - West Penobscot Bay

More Historic Weather Station data

Upgrade to MSW Pro to gain access to the past 30 days of data for over 8000 Wavebouys and Weather Stations around the globe.

Join Pro

Comparision Forecast

View Surf forecast
   
Sa 04/29 8:04 2ft 8s 7 9 mph 1013mb 44f 46f
7:04 2ft 8s 2
mph
1013.6mb 45f 46f
6:04 2.5ft 8s  -  2 mph 1013.3mb 45f 45f
4:04 2ft 8s 7 9 mph 1013.5mb 45f 45f
3:04 2.5ft 6s 4 7 mph 1013.6mb 44f 44f
2:04 2.5ft 8s 4
mph
1013.6mb 44f 44f
1:04 2.5ft 8s  -  2 mph 1013.2mb 44f 44f
12:04 2.5ft 8s 4
mph
1013.5mb 44f 45f
Fr 04/28 11:04 2.5ft 8s 2 4 mph 1013.5mb 44f 45f
10:04 2.5ft 8s 4
mph
1013.8mb 44f 45f
9:04 2.5ft 8s 4
mph
1013.9mb 44f 46f
8:04 2.5ft 8s 2
mph
1013.5mb 44f 46f
6:04 2.5ft 8s 7
mph
1013mb 47f 46f
5:04 2.5ft 8s 7 9 mph 1012.7mb 45f 46f
4:04 2.5ft 8s 7
mph
1012.5mb 44f 47f
3:04 2.5ft 11s 7
mph
1013.4mb 45f 46f
2:04 2.5ft 8s 7
mph
1013.8mb 45f 46f
1:04 2.5ft 8s 9
mph
1013.3mb 46f 46f
12:04 2.5ft 8s 7
mph
1013.9mb 45f 46f
11:04 2.5ft 8s 4
mph
1014.5mb 44f 45f
9:04 3ft 8s 4
mph
1015.2mb 44f 45f
8:04 3.5ft 8s 4 7 mph 1014.9mb 44f 45f
7:04 3.5ft 8s 4
mph
1014.9mb 43f 44f
6:04 3ft 8s 2 4 mph 1014.9mb 44f 45f
5:04 3ft 11s 4 7 mph 1014.6mb 45f 45f
4:04 3.5ft 11s 4 7 mph 1014.2mb 45f 44f
3:04 3ft 8s 7 9 mph 1013.6mb 46f 44f
2:04 3ft 11s 7
mph
1013.6mb 44f 44f
1:04 3.5ft 11s 2
mph
1014mb 44f 44f
12:04 3ft 11s 2 4 mph 1014mb 45f 44f
Do 04/27 11:04 3ft 11s 2 4 mph 1014mb 45f 44f
10:04 4ft 8s 7 9 mph 1014.3mb 46f 44f
9:04 1.6ft 5s 13
mph
1013.7mb 45f 44f
8:04 4.5ft 11s 4 7 mph 1013.2mb 44f 47f
7:04 3.5ft 11s 4 7 mph 1013.3mb 45f 47f
5:04 3.5ft 11s 2
mph
1013.6mb 45f 46f
4:04  -   -  7
mph
1013.6mb - 47f
3:04 3ft 11s  -  2 mph 1013.8mb 45f 49f
2:04 3ft 11s  -  mph - 43f -
1:04 3.5ft 8s  -  mph - 43f -
12:04 3ft 8s  -  mph - 42f -
10:04 3.5ft 8s 7 9 mph 1013.8mb 43f 47f
9:04 4ft 8s 4 7 mph 1013.5mb 43f 46f
8:04 4.5ft 11s 7
mph
1013.7mb 42f 46f
6:04 3.5ft 8s 7
mph
1012.8mb 45f 46f
5:04 3.5ft 8s 7
mph
1012.8mb 45f 46f
4:04 3.5ft 8s 7
mph
1012.7mb 45f 46f
3:04 3.5ft 6s 2 4 mph 1012.6mb 44f 47f
2:04 4ft 11s 4 7 mph 1012.4mb 44f 47f
1:04 3.5ft 6s 7 9 mph 1012.1mb 43f 46f
12:04 4ft 8s 11 13 mph 1012.1mb 43f 46f
Mi 04/26 11:04 4.5ft 8s 13 16 mph 1012.2mb 43f 45f
10:04 4ft 8s 13 16 mph 1013mb 43f 46f
8:04 3.5ft 5s 16 18 mph 1013.3mb 44f 47f
7:04 3.5ft 5s 16 18 mph 1013.3mb 44f 47f
6:04  -   -  16 18 mph 1013.2mb - 47f
5:04 3.5ft 6s 16 18 mph 1013.2mb 44f 47f
4:04 3.5ft 6s 13 16 mph 1013.5mb 44f 47f
3:04 3.5ft 6s 13 16 mph 1014mb 45f 47f
2:04 3ft 6s 11 13 mph 1014.3mb 44f 47f
12:04 2.5ft 6s 4 7 mph 1015.6mb 44f 46f
11:04 3ft 6s 13 18 mph 1016mb 43f 44f
10:04 3ft 6s 13 18 mph 1016mb 43f 44f
9:04 2.5ft 6s 11 13 mph 1016.5mb 43f 45f
8:04 3ft 6s 13
mph
1017.1mb 43f 44f
7:04 3.5ft 6s 18 22 mph 1017mb 43f 44f
6:04 3.5ft 6s 20 25 mph 1016.8mb 43f 45f
5:04 3.5ft 6s 20 22 mph 1017.3mb 44f 46f
4:04 3.5ft 6s 18 20 mph 1018.4mb 44f 45f
3:04 3.5ft 6s 18 22 mph 1019.3mb 44f 44f
2:04 3.5ft 6s 20 22 mph 1020.1mb 43f 44f
1:04 3.5ft 6s 16 20 mph 1022.4mb 43f 43f
12:04 3.5ft 6s 16 20 mph 1022.4mb 43f 43f
Di 04/25 11:04  -   -  18 20 mph 1023mb - 43f
9:04  -   -  20 25 mph 1024.6mb - 44f
8:04  -   -  18 25 mph 1024.9mb - 44f
7:04 2.5ft 4s 18 22 mph 1025.9mb 45f 44f
6:04 2.5ft 4s 18 22 mph 1026.5mb 45f 44f
5:04  -   -  16 20 mph 1026.8mb - 45f
4:04 1.3ft 4s 13 16 mph 1028.4mb 44f 45f
2:04 1.3ft 4s 13 16 mph 1028.4mb 44f 45f